Time;durP1;ratioP1;P1;durP2;ratioP2;P2;SDS_P1;SDS_P2;PMS_P1;PMS_P2;Temp;Humidity;BMP_temperature;BMP_pressure;BME280_temperature;BME280_humidity;BME280_pressure;Samples;Min_cycle;Max_cycle;Signal;HPM_P1;HPM_P2
2023/03/02 00:02:25;;;;;;;40.58;37.33;;;7.80;99.90;;;;;;5205719;28;20041;-67
2023/03/02 00:04:57;;;;;;;39.10;35.47;;;8.10;99.90;;;;;;5205602;28;20057;-68
2023/03/02 00:07:32;;;;;;;38.67;35.80;;;7.80;99.90;;;;;;5205491;28;20021;-67
2023/03/02 00:10:04;;;;;;;40.20;37.00;;;7.90;99.90;;;;;;5205561;28;20091;-67
2023/03/02 00:12:35;;;;;;;39.78;36.58;;;7.90;99.90;;;;;;5205790;28;20071;-67
2023/03/02 00:15:06;;;;;;;39.53;36.22;;;7.80;99.90;;;;;;5205422;28;20473;-67
2023/03/02 00:17:37;;;;;;;38.65;35.45;;;8.10;99.90;;;;;;5205606;28;20030;-67
2023/03/02 00:20:09;;;;;;;40.95;37.50;;;8.00;99.90;;;;;;5205464;28;20029;-67
2023/03/02 00:22:42;;;;;;;39.38;35.95;;;7.90;99.90;;;;;;5205432;28;20025;-67
2023/03/02 00:25:14;;;;;;;36.92;33.70;;;8.00;99.90;;;;;;5205335;28;20087;-68
2023/03/02 00:27:45;;;;;;;37.38;34.28;;;8.10;99.90;;;;;;5205091;28;20501;-67
2023/03/02 00:30:16;;;;;;;40.33;36.97;;;8.10;99.90;;;;;;5205259;28;20087;-67
2023/03/02 00:32:47;;;;;;;38.00;34.80;;;8.00;99.90;;;;;;5205302;28;20025;-67
2023/03/02 00:35:18;;;;;;;38.67;35.40;;;8.00;99.90;;;;;;5205258;28;20116;-67
2023/03/02 00:37:49;;;;;;;40.70;37.28;;;8.00;99.90;;;;;;5205354;28;20037;-68
2023/03/02 00:40:20;;;;;;;40.22;36.83;;;8.00;99.90;;;;;;5205344;28;20466;-67
2023/03/02 00:42:50;;;;;;;39.78;36.33;;;7.90;99.90;;;;;;5205868;28;20151;-67
2023/03/02 00:45:21;;;;;;;39.95;36.58;;;8.00;99.90;;;;;;5209244;28;20109;-67
2023/03/02 00:47:52;;;;;;;38.42;35.45;;;7.90;99.90;;;;;;5208713;28;20029;-67
2023/03/02 00:50:23;;;;;;;37.85;34.85;;;7.80;99.90;;;;;;5209056;28;20466;-67
2023/03/02 00:52:54;;;;;;;40.10;36.88;;;7.90;99.90;;;;;;5209170;28;20036;-68
2023/03/02 00:55:24;;;;;;;42.05;38.53;;;7.90;99.90;;;;;;5209242;28;21385;-67
2023/03/02 00:57:55;;;;;;;36.60;33.60;;;7.90;99.90;;;;;;5208935;28;20092;-68
2023/03/02 01:00:29;;;;;;;38.08;34.83;;;7.90;99.90;;;;;;5208961;28;20108;-67
2023/03/02 01:03:00;;;;;;;38.78;35.50;;;7.90;99.90;;;;;;5208867;28;20466;-68
2023/03/02 01:05:35;;;;;;;39.03;36.03;;;7.80;99.90;;;;;;5208701;28;20033;-67
2023/03/02 01:08:06;;;;;;;37.15;34.25;;;7.90;99.90;;;;;;5208816;28;20033;-68
2023/03/02 01:10:37;;;;;;;38.35;35.17;;;7.70;99.90;;;;;;5208687;28;20354;-67
2023/03/02 01:13:08;;;;;;;38.03;34.65;;;7.90;99.90;;;;;;5208658;28;20380;-68
2023/03/02 01:15:39;;;;;;;38.13;34.95;;;7.70;99.90;;;;;;5208674;28;20087;-67
2023/03/02 01:18:10;;;;;;;40.08;36.40;;;7.90;99.90;;;;;;5208624;28;20049;-67
2023/03/02 01:20:41;;;;;;;36.58;33.47;;;7.80;99.90;;;;;;5208595;28;20108;-67
2023/03/02 01:23:12;;;;;;;34.90;32.30;;;7.80;99.90;;;;;;5208557;28;20109;-67
2023/03/02 01:25:42;;;;;;;39.17;35.65;;;7.80;99.90;;;;;;5208294;28;20032;-68
2023/03/02 01:28:13;;;;;;;39.17;35.60;;;7.80;99.90;;;;;;5208244;28;20049;-67
2023/03/02 01:30:44;;;;;;;35.95;33.03;;;7.80;99.90;;;;;;5208348;28;20029;-67
2023/03/02 01:33:15;;;;;;;40.53;37.38;;;7.80;99.90;;;;;;5208272;28;20117;-67
2023/03/02 01:35:46;;;;;;;38.60;35.40;;;7.80;99.90;;;;;;5208208;28;20556;-67
2023/03/02 01:38:17;;;;;;;38.55;35.58;;;7.80;99.90;;;;;;5208249;28;20449;-67
2023/03/02 01:40:48;;;;;;;41.17;37.95;;;7.80;99.90;;;;;;5208092;28;20033;-68
2023/03/02 01:43:19;;;;;;;37.20;33.92;;;7.80;99.90;;;;;;5207970;28;20021;-67
2023/03/02 01:45:55;;;;;;;37.05;33.95;;;7.70;99.90;;;;;;5207915;28;20060;-67
2023/03/02 01:48:32;;;;;;;38.90;35.85;;;7.70;99.90;;;;;;5207938;28;20025;-67
2023/03/02 01:51:05;;;;;;;35.75;32.90;;;7.60;99.90;;;;;;5207859;28;20432;-67
2023/03/02 01:53:36;;;;;;;34.13;31.30;;;7.80;99.90;;;;;;5207982;28;20060;-67
2023/03/02 01:56:07;;;;;;;37.90;34.75;;;7.60;99.90;;;;;;5206496;28;20513;-67
2023/03/02 01:58:38;;;;;;;37.05;33.90;;;7.60;99.90;;;;;;5206683;28;20359;-67
2023/03/02 02:01:14;;;;;;;39.92;36.70;;;7.80;99.90;;;;;;5207560;28;20040;-67
2023/03/02 02:03:49;;;;;;;35.72;32.92;;;7.60;99.90;;;;;;5207894;28;20013;-67
2023/03/02 02:06:24;;;;;;;37.03;33.80;;;7.70;99.90;;;;;;5207661;28;20033;-67
2023/03/02 02:08:57;;;;;;;38.65;35.72;;;7.60;99.90;;;;;;5207661;28;20032;-67
2023/03/02 02:11:28;;;;;;;39.95;36.58;;;7.60;99.90;;;;;;5207372;28;20029;-67
2023/03/02 02:14:00;;;;;;;38.22;35.13;;;7.80;99.90;;;;;;5207414;28;20021;-67
2023/03/02 02:16:33;;;;;;;37.47;34.35;;;7.70;99.90;;;;;;5207314;28;20073;-67
2023/03/02 02:19:21;;;;;;;37.75;34.78;;;7.90;99.90;;;;;;5207593;28;20477;-67
2023/03/02 02:21:52;;;;;;;40.40;36.97;;;7.70;99.90;;;;;;5207310;28;20051;-67
2023/03/02 02:24:51;;;;;;;36.50;33.65;;;7.80;99.90;;;;;;5207239;28;20044;-68
2023/03/02 02:27:32;;;;;;;40.58;37.25;;;7.60;99.90;;;;;;5205673;28;20393;-68
2023/03/02 02:30:06;;;;;;;41.28;37.50;;;7.80;99.90;;;;;;5207169;28;20033;-67
2023/03/02 02:32:40;;;;;;;42.08;38.45;;;7.80;99.90;;;;;;5206998;28;20053;-68
2023/03/02 02:35:29;;;;;;;38.55;35.08;;;7.70;99.90;;;;;;5207050;28;20540;-67
2023/03/02 02:38:06;;;;;;;43.55;39.65;;;7.60;99.90;;;;;;5207009;28;20496;-67
2023/03/02 02:40:49;;;;;;;42.50;38.70;;;7.70;99.90;;;;;;5206960;28;20481;-67
2023/03/02 02:43:22;;;;;;;44.92;41.03;;;7.60;99.90;;;;;;5206939;28;20033;-67
2023/03/02 02:45:55;;;;;;;41.63;38.42;;;7.60;99.90;;;;;;5206956;28;20570;-68
2023/03/02 02:48:30;;;;;;;42.30;38.63;;;7.70;99.90;;;;;;5206637;28;20032;-67
2023/03/02 02:51:01;;;;;;;42.65;39.08;;;7.70;99.90;;;;;;5206617;28;20052;-67
2023/03/02 02:53:40;;;;;;;43.25;39.85;;;7.80;99.90;;;;;;5206617;28;20037;-67
2023/03/02 02:56:12;;;;;;;46.55;42.65;;;7.80;99.90;;;;;;5206445;28;20041;-67
2023/03/02 02:58:47;;;;;;;46.97;42.95;;;7.60;99.90;;;;;;5206521;28;20496;-68
2023/03/02 03:01:24;;;;;;;46.67;42.78;;;7.70;99.90;;;;;;5206489;28;20127;-68
2023/03/02 03:03:59;;;;;;;45.33;41.65;;;7.70;99.90;;;;;;5206493;28;20041;-68
2023/03/02 03:06:41;;;;;;;46.83;42.90;;;7.70;99.90;;;;;;5206114;28;20045;-68
2023/03/02 03:09:11;;;;;;;49.28;45.28;;;7.70;99.90;;;;;;5206330;28;20017;-67
2023/03/02 03:11:47;;;;;;;48.45;44.38;;;7.80;99.90;;;;;;5206352;28;20389;-67
2023/03/02 03:14:32;;;;;;;44.88;41.17;;;7.60;99.90;;;;;;5206296;28;20021;-67
2023/03/02 03:17:10;;;;;;;45.63;41.70;;;7.70;99.90;;;;;;5206291;28;20072;-67
2023/03/02 03:19:45;;;;;;;45.88;41.80;;;7.80;99.90;;;;;;5206327;28;20025;-68
2023/03/02 03:22:16;;;;;;;43.55;39.92;;;7.70;99.90;;;;;;5206148;28;20036;-68
2023/03/02 03:24:47;;;;;;;45.28;41.22;;;7.80;99.90;;;;;;5206262;28;20022;-68
2023/03/02 03:27:18;;;;;;;42.38;38.60;;;7.70;99.90;;;;;;5206235;28;20046;-68
2023/03/02 03:29:49;;;;;;;41.45;37.90;;;7.90;99.90;;;;;;5206239;28;20029;-69
2023/03/02 03:32:20;;;;;;;43.42;39.88;;;7.80;99.90;;;;;;5206392;28;20031;-67
2023/03/02 03:34:51;;;;;;;43.53;40.10;;;7.80;99.90;;;;;;5206169;28;20377;-67
2023/03/02 03:37:23;;;;;;;41.20;37.95;;;7.60;99.90;;;;;;5205909;28;20041;-67
2023/03/02 03:39:54;;;;;;;42.67;38.78;;;7.60;99.90;;;;;;5206025;28;20100;-67
2023/03/02 03:42:25;;;;;;;40.42;37.05;;;7.80;99.90;;;;;;5206186;28;20033;-67
2023/03/02 03:44:55;;;;;;;43.20;39.75;;;7.70;99.90;;;;;;5205868;28;20028;-68
2023/03/02 03:47:26;;;;;;;42.75;39.15;;;7.60;99.90;;;;;;5205934;28;20120;-67
2023/03/02 03:49:57;;;;;;;40.13;36.60;;;7.80;99.90;;;;;;5205921;28;20250;-67
2023/03/02 03:52:31;;;;;;;40.83;37.53;;;7.70;99.90;;;;;;5205880;28;20104;-67
2023/03/02 03:55:02;;;;;;;38.38;35.30;;;7.70;99.90;;;;;;5205780;28;20116;-67
2023/03/02 03:57:33;;;;;;;40.42;37.28;;;7.80;99.90;;;;;;5205760;28;20073;-67
2023/03/02 04:00:09;;;;;;;36.85;33.88;;;7.80;99.90;;;;;;5205749;28;20079;-67
2023/03/02 04:02:40;;;;;;;38.75;35.65;;;7.70;99.90;;;;;;5205862;28;20029;-67
2023/03/02 04:05:12;;;;;;;38.33;35.33;;;7.70;99.90;;;;;;5205610;28;20017;-68
2023/03/02 04:07:43;;;;;;;39.70;36.58;;;7.60;99.90;;;;;;5205728;28;20029;-67
2023/03/02 04:10:14;;;;;;;40.72;37.50;;;7.70;99.90;;;;;;5205712;28;20021;-67
2023/03/02 04:12:45;;;;;;;41.78;38.80;;;7.70;99.90;;;;;;5205547;28;20033;-68
2023/03/02 04:15:16;;;;;;;42.80;39.58;;;7.60;99.90;;;;;;5205375;28;20022;-67
2023/03/02 04:17:47;;;;;;;41.25;38.15;;;7.60;99.90;;;;;;5206076;28;20037;-67
2023/03/02 04:20:19;;;;;;;42.30;38.97;;;7.50;99.90;;;;;;5209599;28;20033;-67
2023/03/02 04:22:52;;;;;;;39.53;36.55;;;7.50;99.90;;;;;;5209546;28;20029;-67
2023/03/02 04:25:26;;;;;;;42.42;38.75;;;7.50;99.90;;;;;;5209624;28;20025;-67
2023/03/02 04:27:57;;;;;;;39.70;36.80;;;7.60;99.90;;;;;;5209305;28;20045;-67
2023/03/02 04:30:28;;;;;;;43.30;39.97;;;7.60;99.90;;;;;;5209283;28;20030;-67
2023/03/02 04:32:59;;;;;;;42.13;39.13;;;7.30;99.90;;;;;;5209257;28;20044;-67
2023/03/02 04:35:30;;;;;;;39.05;36.28;;;7.60;99.90;;;;;;5209310;28;20034;-67
2023/03/02 04:38:00;;;;;;;38.50;35.60;;;7.40;99.90;;;;;;5209422;28;20105;-67
2023/03/02 04:40:31;;;;;;;41.28;38.13;;;7.40;99.90;;;;;;5209282;28;20025;-67
2023/03/02 04:43:02;;;;;;;37.78;34.88;;;7.50;99.90;;;;;;5209281;28;20082;-67
2023/03/02 04:45:33;;;;;;;42.28;39.30;;;7.50;99.90;;;;;;5209071;28;20045;-68
2023/03/02 04:48:04;;;;;;;41.75;38.50;;;7.50;99.90;;;;;;5209327;28;20032;-67
2023/03/02 04:50:36;;;;;;;40.25;37.35;;;7.40;99.90;;;;;;5209234;28;20021;-68
2023/03/02 04:53:06;;;;;;;43.03;39.88;;;7.50;99.90;;;;;;5209241;28;20026;-68
2023/03/02 04:55:38;;;;;;;36.28;33.78;;;7.40;99.90;;;;;;5208812;28;20091;-67
2023/03/02 04:58:08;;;;;;;39.75;36.78;;;7.50;99.90;;;;;;5208878;28;20099;-67
2023/03/02 05:00:39;;;;;;;38.78;36.17;;;7.40;99.90;;;;;;5208912;28;20400;-67
2023/03/02 05:03:10;;;;;;;38.95;36.15;;;7.60;99.90;;;;;;5208860;28;20358;-67
2023/03/02 05:05:41;;;;;;;39.53;36.90;;;7.40;99.90;;;;;;5207748;28;20026;-67
2023/03/02 05:08:13;;;;;;;40.47;37.58;;;7.40;99.90;;;;;;5208874;28;20022;-67
2023/03/02 05:10:44;;;;;;;38.53;35.90;;;7.30;99.90;;;;;;5208260;28;20033;-67
2023/03/02 05:13:15;;;;;;;38.80;36.20;;;7.40;99.90;;;;;;5208539;28;20020;-67
2023/03/02 05:15:46;;;;;;;38.22;35.63;;;7.30;99.90;;;;;;5208580;28;20057;-67
2023/03/02 05:18:17;;;;;;;37.78;35.08;;;7.20;99.90;;;;;;5208495;28;20030;-67
2023/03/02 05:20:49;;;;;;;35.17;32.65;;;7.30;99.90;;;;;;5208619;28;20413;-67
2023/03/02 05:23:23;;;;;;;39.35;36.60;;;7.10;99.90;;;;;;5208382;28;20033;-67
2023/03/02 05:25:55;;;;;;;41.35;38.42;;;7.30;99.90;;;;;;5208394;28;20420;-67
2023/03/02 05:28:26;;;;;;;35.65;33.08;;;7.30;99.90;;;;;;5208137;28;20057;-68
2023/03/02 05:30:58;;;;;;;40.28;37.65;;;7.30;99.90;;;;;;5208364;28;20404;-68
2023/03/02 05:33:29;;;;;;;41.00;38.22;;;7.30;99.90;;;;;;5208325;28;20060;-67
2023/03/02 05:36:00;;;;;;;39.50;36.88;;;7.30;99.90;;;;;;5208152;28;20052;-67
2023/03/02 05:38:31;;;;;;;41.55;38.97;;;7.30;99.90;;;;;;5208084;28;20033;-67
2023/03/02 05:41:02;;;;;;;44.05;41.22;;;7.20;99.90;;;;;;5208187;28;20026;-67
2023/03/02 05:43:33;;;;;;;36.35;33.95;;;7.10;99.90;;;;;;5208044;28;20025;-67
2023/03/02 05:46:05;;;;;;;36.15;33.63;;;7.10;99.90;;;;;;5208127;28;20029;-67
2023/03/02 05:48:36;;;;;;;38.00;35.63;;;7.20;99.90;;;;;;5207881;28;20052;-68
2023/03/02 05:51:06;;;;;;;40.95;38.35;;;7.10;99.90;;;;;;5208023;28;20021;-67
2023/03/02 05:53:37;;;;;;;39.30;36.58;;;7.10;99.90;;;;;;5207732;28;20022;-67
2023/03/02 05:56:09;;;;;;;38.95;36.30;;;7.10;99.90;;;;;;5207667;28;20436;-67
2023/03/02 05:58:39;;;;;;;42.03;39.13;;;7.20;99.90;;;;;;5207838;28;20029;-67
2023/03/02 06:01:10;;;;;;;40.38;37.83;;;7.20;99.90;;;;;;5207873;28;20029;-67
2023/03/02 06:03:42;;;;;;;38.38;35.63;;;7.10;99.90;;;;;;5208054;28;20034;-67
2023/03/02 06:06:13;;;;;;;35.38;32.83;;;7.30;99.90;;;;;;5207791;28;20112;-67
2023/03/02 06:08:44;;;;;;;36.40;33.88;;;7.30;99.90;;;;;;5207606;28;20108;-67
2023/03/02 06:11:15;;;;;;;38.63;36.15;;;7.30;99.90;;;;;;5207346;28;20091;-68
2023/03/02 06:13:46;;;;;;;39.10;36.53;;;7.40;99.90;;;;;;5207561;28;20101;-68
2023/03/02 06:16:16;;;;;;;35.67;33.47;;;7.40;99.90;;;;;;5207151;28;20040;-68
2023/03/02 06:18:47;;;;;;;39.40;36.83;;;7.20;99.90;;;;;;5207453;28;20034;-67
2023/03/02 06:21:18;;;;;;;36.60;33.92;;;7.20;99.90;;;;;;5207236;28;20105;-67
2023/03/02 06:23:49;;;;;;;36.53;34.17;;;7.30;99.90;;;;;;5207129;28;20121;-67
2023/03/02 06:26:20;;;;;;;38.42;35.72;;;7.30;99.90;;;;;;5205753;28;20529;-67
2023/03/02 06:28:50;;;;;;;36.70;34.35;;;7.40;99.90;;;;;;5207313;28;20132;-67
2023/03/02 06:31:21;;;;;;;34.50;32.40;;;7.30;99.90;;;;;;5207069;28;20083;-68
2023/03/02 06:33:52;;;;;;;36.25;33.95;;;7.30;99.90;;;;;;5207040;28;20075;-69
2023/03/02 06:36:23;;;;;;;36.50;34.03;;;7.40;99.90;;;;;;5206937;28;20037;-68
2023/03/02 06:38:54;;;;;;;37.80;35.00;;;7.40;99.90;;;;;;5205564;28;20492;-67
2023/03/02 06:41:25;;;;;;;37.50;34.90;;;7.50;99.90;;;;;;5206338;28;20033;-67
2023/03/02 06:43:55;;;;;;;38.33;35.67;;;7.50;99.90;;;;;;5206954;28;20040;-68
2023/03/02 06:46:26;;;;;;;37.95;35.22;;;7.40;99.90;;;;;;5206801;28;20028;-67
2023/03/02 06:48:57;;;;;;;36.28;33.75;;;7.50;99.90;;;;;;5206741;28;20469;-68
2023/03/02 06:51:28;;;;;;;37.67;35.13;;;7.60;99.90;;;;;;5206760;28;20108;-68
2023/03/02 06:53:59;;;;;;;37.35;34.90;;;7.50;99.90;;;;;;5206523;28;20357;-68
2023/03/02 06:56:30;;;;;;;39.08;36.47;;;7.60;99.90;;;;;;5206260;28;20041;-67
2023/03/02 06:59:01;;;;;;;42.28;39.30;;;7.50;99.90;;;;;;5206560;28;20432;-70
2023/03/02 07:01:34;;;;;;;41.05;38.33;;;7.60;99.90;;;;;;5205916;28;20022;-67
2023/03/02 07:04:05;;;;;;;37.50;34.90;;;7.60;99.90;;;;;;5206346;28;20038;-68
2023/03/02 07:06:36;;;;;;;41.65;38.58;;;7.60;99.90;;;;;;5206373;28;20036;-67
2023/03/02 07:09:07;;;;;;;40.78;38.00;;;7.70;99.90;;;;;;5206368;28;20037;-68
2023/03/02 07:11:38;;;;;;;40.65;37.90;;;7.60;99.90;;;;;;5206458;28;20104;-67
2023/03/02 07:14:09;;;;;;;38.65;35.95;;;7.50;99.90;;;;;;5206223;28;20116;-67
2023/03/02 07:16:40;;;;;;;40.08;37.15;;;7.70;99.90;;;;;;5206259;28;20039;-68
2023/03/02 07:19:12;;;;;;;41.10;38.22;;;7.60;99.90;;;;;;5206333;28;20440;-66
2023/03/02 07:21:43;;;;;;;39.00;36.28;;;7.60;99.90;;;;;;5206478;28;20060;-66
2023/03/02 07:24:14;;;;;;;40.55;37.45;;;7.60;99.90;;;;;;5206525;28;20108;-66
2023/03/02 07:26:45;;;;;;;42.15;39.25;;;7.60;99.90;;;;;;5206098;28;20046;-66
2023/03/02 07:29:16;;;;;;;40.47;37.85;;;7.60;99.90;;;;;;5206233;28;20116;-67
2023/03/02 07:31:47;;;;;;;42.47;39.47;;;7.60;99.90;;;;;;5206022;28;20484;-66
2023/03/02 07:34:18;;;;;;;43.47;40.33;;;7.60;99.90;;;;;;5206053;28;20022;-68
2023/03/02 07:36:50;;;;;;;44.60;41.55;;;7.70;99.90;;;;;;5206067;28;20049;-66
2023/03/02 07:39:21;;;;;;;113.47;100.18;;;7.60;99.90;;;;;;5206085;28;20043;-66
2023/03/02 07:41:52;;;;;;;46.63;43.03;;;7.70;99.90;;;;;;5205990;28;20037;-67
2023/03/02 07:44:23;;;;;;;43.97;40.88;;;7.80;99.90;;;;;;5205701;28;20032;-67
2023/03/02 07:46:53;;;;;;;44.97;41.67;;;7.80;99.90;;;;;;5205748;28;20033;-67
2023/03/02 07:49:24;;;;;;;44.85;41.70;;;7.80;99.90;;;;;;5205818;28;20018;-67
2023/03/02 07:51:55;;;;;;;48.35;45.17;;;7.80;99.90;;;;;;5205141;28;20029;-67
2023/03/02 07:54:29;;;;;;;41.95;39.10;;;7.80;99.90;;;;;;5205197;28;20022;-66
2023/03/02 07:57:00;;;;;;;46.67;43.70;;;7.90;99.90;;;;;;5204294;28;20041;-68
2023/03/02 07:59:30;;;;;;;45.03;42.05;;;7.90;99.90;;;;;;5205602;28;20045;-66
2023/03/02 08:02:01;;;;;;;47.70;43.95;;;7.80;99.90;;;;;;5205553;28;20026;-67
2023/03/02 08:04:34;;;;;;;49.88;46.58;;;7.90;99.90;;;;;;5205396;28;20022;-67
2023/03/02 08:07:05;;;;;;;49.72;46.55;;;7.90;99.90;;;;;;5205392;28;20021;-67
2023/03/02 08:09:38;;;;;;;45.30;42.30;;;7.90;99.90;;;;;;5205609;28;20033;-67
2023/03/02 08:12:09;;;;;;;46.28;43.25;;;7.70;99.90;;;;;;5205476;28;20036;-67
2023/03/02 08:14:40;;;;;;;48.38;45.13;;;7.90;99.90;;;;;;5205631;28;20029;-66
2023/03/02 08:17:11;;;;;;;44.67;41.72;;;7.90;99.90;;;;;;5205334;28;20440;-68
2023/03/02 08:19:42;;;;;;;47.53;44.15;;;8.10;99.90;;;;;;5205543;28;20021;-68
2023/03/02 08:22:13;;;;;;;45.83;42.95;;;8.00;99.90;;;;;;5204903;28;20112;-68
2023/03/02 08:24:44;;;;;;;48.15;44.70;;;7.90;99.90;;;;;;5205217;28;20043;-68
2023/03/02 08:27:16;;;;;;;46.20;43.10;;;8.00;99.90;;;;;;5205051;28;20049;-68
2023/03/02 08:29:47;;;;;;;49.55;46.33;;;8.00;99.90;;;;;;5205365;28;20060;-68
2023/03/02 08:32:18;;;;;;;48.13;44.50;;;7.90;99.90;;;;;;5205284;28;20024;-68
2023/03/02 08:34:50;;;;;;;48.28;45.13;;;8.00;99.90;;;;;;5205625;28;20030;-68
2023/03/02 08:37:21;;;;;;;48.80;45.47;;;8.10;99.90;;;;;;5205567;28;20037;-68
2023/03/02 08:39:52;;;;;;;49.45;46.08;;;8.20;99.90;;;;;;5205514;28;20105;-69
2023/03/02 08:42:23;;;;;;;50.15;46.72;;;8.00;99.90;;;;;;5204401;28;20365;-69
2023/03/02 08:44:54;;;;;;;46.47;43.28;;;8.10;99.90;;;;;;5205586;28;20029;-69
2023/03/02 08:47:25;;;;;;;49.08;45.88;;;8.20;99.90;;;;;;5205215;28;20056;-69
2023/03/02 08:49:56;;;;;;;52.55;48.95;;;8.30;99.90;;;;;;5205439;28;20039;-69
2023/03/02 08:52:27;;;;;;;51.10;47.58;;;8.20;99.90;;;;;;5205306;28;20096;-67
2023/03/02 08:54:58;;;;;;;48.33;45.10;;;8.30;99.90;;;;;;5205061;28;20034;-68
2023/03/02 08:57:28;;;;;;;46.92;44.05;;;8.50;99.90;;;;;;5205069;28;20073;-67
2023/03/02 08:59:59;;;;;;;46.92;44.05;;;8.40;99.90;;;;;;5205167;28;20029;-67
2023/03/02 09:02:30;;;;;;;47.92;44.88;;;8.30;99.90;;;;;;5204063;28;20033;-67
2023/03/02 09:05:01;;;;;;;48.45;45.45;;;8.40;99.90;;;;;;5207526;28;20021;-67
2023/03/02 09:07:32;;;;;;;48.35;45.38;;;8.40;99.90;;;;;;5208881;28;20424;-67
2023/03/02 09:10:03;;;;;;;50.53;47.35;;;8.30;99.90;;;;;;5208810;28;20030;-67
2023/03/02 09:12:34;;;;;;;50.38;47.20;;;8.40;99.90;;;;;;5208641;28;20021;-67
2023/03/02 09:15:06;;;;;;;42.65;39.83;;;8.50;99.90;;;;;;5208592;28;20094;-67
2023/03/02 09:17:36;;;;;;;45.22;42.42;;;8.30;99.90;;;;;;5208644;28;20033;-66
2023/03/02 09:20:08;;;;;;;51.08;47.85;;;8.30;99.90;;;;;;5208567;28;20032;-65
2023/03/02 09:22:41;;;;;;;50.42;47.42;;;8.40;99.90;;;;;;5208662;28;20029;-66
2023/03/02 09:25:12;;;;;;;48.60;45.83;;;8.10;99.90;;;;;;5208425;28;20040;-67
2023/03/02 09:27:43;;;;;;;47.13;44.28;;;8.20;99.90;;;;;;5206830;28;20049;-67
2023/03/02 09:30:15;;;;;;;51.92;48.70;;;8.30;99.90;;;;;;5208339;28;20060;-66
2023/03/02 09:32:47;;;;;;;52.17;49.13;;;8.20;99.90;;;;;;5208302;28;20504;-66
2023/03/02 09:35:18;;;;;;;51.50;48.50;;;8.00;99.90;;;;;;5207937;28;20036;-68
2023/03/02 09:37:49;;;;;;;47.53;44.72;;;8.00;99.90;;;;;;5208239;28;20033;-66
2023/03/02 09:40:22;;;;;;;50.25;47.30;;;8.10;99.90;;;;;;5208143;28;20087;-67
2023/03/02 09:43:12;;;;;;;51.67;48.53;;;8.10;99.90;;;;;;5208152;28;20026;-66
2023/03/02 09:46:01;;;;;;;47.60;44.77;;;8.20;99.90;;;;;;5207995;28;20026;-66
2023/03/02 09:48:57;;;;;;;35.20;33.00;;;8.20;99.90;;;;;;5207546;28;20436;-67
2023/03/02 09:51:44;;;;;;;50.72;47.72;;;8.10;99.90;;;;;;5207490;28;20025;-67
2023/03/02 09:54:20;;;;;;;45.70;42.92;;;8.20;99.90;;;;;;5207857;28;20026;-67
2023/03/02 09:56:57;;;;;;;46.45;43.67;;;8.20;99.90;;;;;;5207734;28;20045;-68
2023/03/02 09:59:42;;;;;;;47.42;44.53;;;8.00;99.90;;;;;;5207742;28;20018;-68
2023/03/02 10:02:36;;;;;;;47.55;44.75;;;8.10;99.90;;;;;;5207838;28;20461;-66
2023/03/02 10:05:27;;;;;;;42.22;39.90;;;8.10;99.90;;;;;;5207791;28;20028;-67
2023/03/02 10:07:58;;;;;;;44.17;41.67;;;8.20;99.90;;;;;;5207751;28;20381;-66
2023/03/02 10:10:43;;;;;;;46.35;43.67;;;8.10;99.90;;;;;;5207740;28;20022;-66
2023/03/02 10:13:23;;;;;;;46.22;43.53;;;8.10;99.90;;;;;;5207447;28;20033;-69
2023/03/02 10:16:19;;;;;;;46.87;44.10;;;8.10;99.90;;;;;;5206535;28;20030;-66
2023/03/02 10:19:03;;;;;;;41.17;38.85;;;8.10;99.90;;;;;;5207559;28;20076;-69
2023/03/02 10:21:48;;;;;;;43.55;41.03;;;8.30;99.90;;;;;;5207552;28;20032;-68
2023/03/02 10:24:39;;;;;;;47.55;44.88;;;8.20;99.90;;;;;;5207283;28;20021;-67
2023/03/02 10:27:24;;;;;;;45.55;42.85;;;8.10;99.90;;;;;;5206696;28;20147;-67
2023/03/02 10:30:05;;;;;;;49.97;47.15;;;8.10;99.90;;;;;;5207357;28;20025;-67
2023/03/02 10:32:44;;;;;;;47.00;44.22;;;8.00;99.90;;;;;;5205783;28;20026;-68
2023/03/02 10:35:21;;;;;;;47.10;44.28;;;8.20;99.90;;;;;;5207214;28;20108;-68
2023/03/02 10:38:17;;;;;;;48.75;45.83;;;8.30;99.90;;;;;;5207173;28;20612;-66
2023/03/02 10:41:09;;;;;;;40.88;38.47;;;8.40;99.90;;;;;;5199677;28;20508;-67
2023/03/02 10:44:01;;;;;;;39.03;36.63;;;8.40;99.90;;;;;;5206555;28;20042;-67
2023/03/02 10:46:43;;;;;;;41.78;39.28;;;8.20;99.90;;;;;;5206952;28;20026;-68
2023/03/02 10:49:28;;;;;;;39.42;37.22;;;8.40;99.90;;;;;;5206898;28;20060;-67
2023/03/02 10:52:14;;;;;;;40.35;37.95;;;8.50;99.90;;;;;;5206521;28;20056;-68
2023/03/02 10:54:48;;;;;;;42.88;40.28;;;8.50;99.90;;;;;;5206561;28;20025;-66
2023/03/02 10:57:25;;;;;;;43.78;41.05;;;8.40;99.90;;;;;;5206411;28;20041;-69
2023/03/02 11:00:10;;;;;;;40.08;37.78;;;8.30;99.90;;;;;;5206611;28;20047;-69
2023/03/02 11:02:49;;;;;;;39.28;37.08;;;8.30;99.90;;;;;;5206432;28;20029;-68
2023/03/02 11:05:27;;;;;;;43.05;40.55;;;8.50;99.90;;;;;;5206582;28;20025;-68
2023/03/02 11:08:09;;;;;;;42.58;40.25;;;8.50;99.90;;;;;;5206344;28;20104;-67
2023/03/02 11:10:54;;;;;;;43.50;41.00;;;8.20;99.90;;;;;;5206464;28;20036;-67
2023/03/02 11:13:30;;;;;;;42.75;40.35;;;8.40;99.90;;;;;;5206594;28;20088;-66
2023/03/02 11:16:03;;;;;;;44.45;41.90;;;8.20;99.90;;;;;;5206489;28;20045;-66
2023/03/02 11:18:41;;;;;;;43.08;40.63;;;8.20;99.90;;;;;;5206681;28;20033;-66
2023/03/02 11:21:21;;;;;;;40.88;38.58;;;8.30;99.90;;;;;;5206422;28;20024;-66
2023/03/02 11:24:26;;;;;;;42.38;39.97;;;8.40;99.90;;;;;;5206226;28;20025;-67
2023/03/02 11:27:01;;;;;;;42.50;40.10;;;8.60;99.90;;;;;;5205823;28;20508;-66
2023/03/02 11:29:38;;;;;;;43.38;40.63;;;8.50;99.90;;;;;;5206217;28;20033;-66
2023/03/02 11:32:17;;;;;;;43.65;40.95;;;8.20;99.90;;;;;;5206130;28;20061;-66
2023/03/02 11:35:01;;;;;;;42.03;39.73;;;8.30;99.90;;;;;;5206167;28;20129;-66
2023/03/02 11:37:49;;;;;;;41.67;39.25;;;8.30;99.90;;;;;;5206061;28;20296;-66
2023/03/02 11:40:35;;;;;;;43.92;41.40;;;8.40;99.90;;;;;;5204733;28;20535;-65
2023/03/02 11:43:10;;;;;;;44.03;41.60;;;8.40;99.90;;;;;;5205928;28;20039;-66
2023/03/02 11:45:45;;;;;;;59.55;56.25;;;8.30;99.90;;;;;;5205930;28;20079;-66
2023/03/02 11:48:25;;;;;;;42.72;40.20;;;8.50;99.90;;;;;;5205964;28;20057;-66
2023/03/02 11:50:59;;;;;;;41.97;39.50;;;8.40;99.90;;;;;;5205841;28;20536;-66
2023/03/02 11:54:11;;;;;;;44.90;41.97;;;8.30;99.90;;;;;;5205192;28;20040;-67
2023/03/02 11:56:42;;;;;;;45.88;43.08;;;8.50;99.90;;;;;;5202683;28;20057;-66
2023/03/02 11:59:18;;;;;;;46.45;43.85;;;8.60;99.90;;;;;;5205746;28;20057;-65
2023/03/02 12:01:52;;;;;;;48.40;45.60;;;8.60;99.90;;;;;;5205756;28;20021;-67
2023/03/02 12:04:36;;;;;;;48.35;45.45;;;8.50;99.90;;;;;;5205674;28;20029;-66
2023/03/02 12:07:23;;;;;;;47.70;44.75;;;8.60;99.90;;;;;;5205596;28;20156;-66
2023/03/02 12:10:02;;;;;;;44.40;41.78;;;8.50;99.90;;;;;;5205684;28;20382;-64
2023/03/02 12:12:45;;;;;;;46.42;43.53;;;8.50;99.90;;;;;;5205497;28;20029;-65
2023/03/02 12:15:33;;;;;;;49.17;46.30;;;8.60;99.90;;;;;;5205514;28;20058;-67
2023/03/02 12:18:21;;;;;;;58.70;55.30;;;8.60;99.90;;;;;;5205536;28;20538;-66
2023/03/02 12:21:04;;;;;;;43.15;40.65;;;8.60;99.90;;;;;;5205513;28;20053;-66
2023/03/02 12:23:48;;;;;;;45.47;42.83;;;8.70;99.90;;;;;;5205377;28;20033;-66
2023/03/02 12:26:19;;;;;;;51.85;48.72;;;8.50;99.90;;;;;;5205372;28;20061;-66
2023/03/02 12:29:20;;;;;;;48.53;45.70;;;8.60;99.90;;;;;;5205477;28;20593;-67
2023/03/02 12:31:54;;;;;;;73.05;68.88;;;8.70;99.90;;;;;;5205401;28;20477;-67
2023/03/02 12:34:41;;;;;;;57.53;54.22;;;8.80;99.90;;;;;;5205503;28;20560;-66
2023/03/02 12:37:26;;;;;;;63.90;60.03;;;9.00;99.90;;;;;;5205208;28;20416;-68
2023/03/02 12:40:28;;;;;;;135.30;126.15;;;9.00;99.90;;;;;;5207213;28;20499;-66
2023/03/02 12:43:11;;;;;;;56.47;53.17;;;9.10;99.90;;;;;;5209377;28;20029;-66
2023/03/02 12:46:27;;;;;;;43.55;40.95;;;9.00;99.90;;;;;;5209340;28;20036;-67
2023/03/02 12:49:04;;;;;;;50.00;47.10;;;8.90;99.90;;;;;;5209275;28;20028;-65
2023/03/02 12:52:16;;;;;;;47.35;44.55;;;8.80;99.90;;;;;;5209150;28;20022;-65
2023/03/02 12:55:04;;;;;;;46.50;43.60;;;8.60;99.90;;;;;;5208858;28;20025;-66
2023/03/02 12:57:50;;;;;;;45.38;42.60;;;8.60;99.90;;;;;;5208744;28;20050;-65
2023/03/02 13:00:25;;;;;;;45.47;42.55;;;8.80;99.90;;;;;;5209105;28;20092;-66
2023/03/02 13:02:57;;;;;;;45.90;42.92;;;8.60;99.90;;;;;;5208887;28;20401;-66
2023/03/02 13:05:33;;;;;;;44.90;41.88;;;8.60;99.90;;;;;;5208540;28;20033;-65
2023/03/02 13:08:27;;;;;;;43.88;41.20;;;8.60;99.90;;;;;;5208939;28;20029;-66
2023/03/02 13:11:01;;;;;;;46.58;43.42;;;8.60;99.90;;;;;;5208801;28;20021;-66
2023/03/02 13:13:40;;;;;;;42.28;39.58;;;8.70;99.90;;;;;;5208799;28;20032;-66
2023/03/02 13:16:30;;;;;;;45.65;42.65;;;8.70;99.90;;;;;;5208772;28;20087;-66